Time;durP1;ratioP1;P1;durP2;ratioP2;P2;SDS_P1;SDS_P2;PMS_P1;PMS_P2;Temp;Humidity;BMP_temperature;BMP_pressure;BME280_temperature;BME280_humidity;BME280_pressure;Samples;Min_cycle;Max_cycle;Signal;HPM_P1;HPM_P2
2021/06/30 00:01:11;;;;;;;17.00;12.40;;;;;;;;;;5076662;28;20530;-75
2021/06/30 00:03:38;;;;;;;17.63;13.13;;;;;;;;;;5075319;28;20536;-75
2021/06/30 00:06:05;;;;;;;22.33;14.93;;;;;;;;;;5076630;28;20512;-76
2021/06/30 00:08:34;;;;;;;21.80;13.40;;;;;;;;;;5076949;28;20478;-76
2021/06/30 00:11:01;;;;;;;18.57;12.20;;;;;;;;;;5076055;28;20431;-74
2021/06/30 00:13:29;;;;;;;24.07;13.60;;;;;;;;;;5076589;28;20529;-75
2021/06/30 00:15:56;;;;;;;21.30;13.87;;;;;;;;;;5076372;28;20532;-75
2021/06/30 00:18:24;;;;;;;20.57;14.40;;;;;;;;;;5076539;28;20448;-76
2021/06/30 00:20:51;;;;;;;17.73;12.27;;;;;;;;;;5076820;28;20454;-75
2021/06/30 00:23:18;;;;;;;17.60;12.43;;;;;;;;;;5076719;28;20502;-75
2021/06/30 00:25:47;;;;;;;18.20;13.20;;;;;;;;;;5076086;28;20445;-74
2021/06/30 00:28:14;;;;;;;18.77;12.77;;;;;;;;;;5076310;28;20565;-74
2021/06/30 00:30:42;;;;;;;17.87;12.40;;;;;;;;;;5076296;28;20528;-74
2021/06/30 00:33:09;;;;;;;21.80;14.03;;;;;;;;;;5076364;28;20480;-74
2021/06/30 00:35:36;;;;;;;19.80;13.10;;;;;;;;;;5076173;28;20523;-74
2021/06/30 00:38:04;;;;;;;19.87;12.57;;;;;;;;;;5075653;28;20995;-73
2021/06/30 00:40:32;;;;;;;22.43;14.30;;;;;;;;;;5076132;28;20441;-73
2021/06/30 00:43:00;;;;;;;20.77;12.73;;;;;;;;;;5075778;28;20489;-74
2021/06/30 00:45:27;;;;;;;17.10;12.50;;;;;;;;;;5075765;28;20443;-74
2021/06/30 00:47:55;;;;;;;19.03;12.60;;;;;;;;;;5075513;28;20521;-73
2021/06/30 00:50:22;;;;;;;21.87;13.83;;;;;;;;;;5075577;28;20454;-72
2021/06/30 00:52:49;;;;;;;19.37;13.03;;;;;;;;;;5075594;28;20444;-72
2021/06/30 00:55:17;;;;;;;22.57;12.00;;;;;;;;;;5075556;28;20442;-72
2021/06/30 00:57:45;;;;;;;16.20;12.60;;;;;;;;;;5075860;28;20496;-71
2021/06/30 01:00:14;;;;;;;22.93;13.10;;;;;;;;;;5076104;28;20463;-71
2021/06/30 01:02:42;;;;;;;23.87;14.77;;;;;;;;;;5074581;28;20457;-71
2021/06/30 01:05:09;;;;;;;21.60;12.70;;;;;;;;;;5075495;28;20433;-71
2021/06/30 01:07:37;;;;;;;17.93;12.37;;;;;;;;;;5074639;28;20563;-71
2021/06/30 01:10:05;;;;;;;19.93;12.43;;;;;;;;;;5075699;28;20523;-71
2021/06/30 01:12:32;;;;;;;19.37;12.17;;;;;;;;;;5075367;28;20486;-71
2021/06/30 01:15:03;;;;;;;17.73;12.30;;;;;;;;;;5075135;28;20954;-71
2021/06/30 01:17:31;;;;;;;16.80;12.10;;;;;;;;;;5074779;28;20547;-71
2021/06/30 01:19:59;;;;;;;20.07;11.83;;;;;;;;;;5075656;28;20452;-72
2021/06/30 01:22:26;;;;;;;19.73;12.70;;;;;;;;;;5075336;28;20528;-72
2021/06/30 01:24:55;;;;;;;20.80;12.87;;;;;;;;;;5075466;28;20437;-70
2021/06/30 01:27:23;;;;;;;25.57;12.30;;;;;;;;;;5075275;28;20547;-71
2021/06/30 01:29:50;;;;;;;18.13;12.60;;;;;;;;;;5075123;28;20451;-70
2021/06/30 01:32:18;;;;;;;23.50;14.23;;;;;;;;;;5075093;28;20437;-71
2021/06/30 01:34:47;;;;;;;23.10;12.80;;;;;;;;;;5074976;28;20441;-70
2021/06/30 01:37:14;;;;;;;20.93;11.80;;;;;;;;;;5075260;28;20457;-72
2021/06/30 01:39:42;;;;;;;21.13;12.07;;;;;;;;;;5074988;28;20798;-72
2021/06/30 01:42:11;;;;;;;21.47;13.00;;;;;;;;;;5075090;28;20441;-72
2021/06/30 01:44:38;;;;;;;17.47;11.47;;;;;;;;;;5074867;28;20452;-72
2021/06/30 01:47:05;;;;;;;17.80;12.57;;;;;;;;;;5073425;28;20476;-72
2021/06/30 01:49:32;;;;;;;16.13;10.77;;;;;;;;;;5074163;28;20981;-72
2021/06/30 01:51:59;;;;;;;18.13;11.20;;;;;;;;;;5074235;28;20467;-72
2021/06/30 01:54:27;;;;;;;14.43;11.27;;;;;;;;;;5074442;28;20869;-71
2021/06/30 01:56:54;;;;;;;15.07;10.20;;;;;;;;;;5074300;28;20456;-71
2021/06/30 01:59:22;;;;;;;15.20;10.57;;;;;;;;;;5074562;28;20479;-71
2021/06/30 02:01:50;;;;;;;16.43;11.20;;;;;;;;;;5074585;28;20449;-72
2021/06/30 02:04:17;;;;;;;16.53;10.50;;;;;;;;;;5074670;28;20529;-71
2021/06/30 02:06:45;;;;;;;18.60;11.60;;;;;;;;;;5073174;28;21636;-71
2021/06/30 02:09:13;;;;;;;13.30;9.30;;;;;;;;;;5074120;28;20481;-72
2021/06/30 02:11:41;;;;;;;15.50;10.63;;;;;;;;;;5073757;28;20442;-71
2021/06/30 02:14:09;;;;;;;15.07;9.87;;;;;;;;;;5073938;28;20531;-71
2021/06/30 02:16:38;;;;;;;18.37;10.30;;;;;;;;;;5073698;28;20522;-71
2021/06/30 02:19:08;;;;;;;16.03;9.37;;;;;;;;;;5074074;28;20531;-71
2021/06/30 02:21:36;;;;;;;20.30;10.40;;;;;;;;;;5074511;28;20487;-71
2021/06/30 02:24:03;;;;;;;18.00;11.63;;;;;;;;;;5074012;28;20444;-72
2021/06/30 02:26:30;;;;;;;16.07;10.60;;;;;;;;;;5074129;28;20432;-70
2021/06/30 02:28:58;;;;;;;15.47;11.57;;;;;;;;;;5073722;28;20569;-70
2021/06/30 02:31:25;;;;;;;15.80;10.90;;;;;;;;;;5072984;28;20523;-70
2021/06/30 02:33:54;;;;;;;12.70;10.17;;;;;;;;;;5073206;28;20467;-70
2021/06/30 02:36:21;;;;;;;13.30;9.57;;;;;;;;;;5072782;28;20532;-70
2021/06/30 02:38:48;;;;;;;16.73;11.03;;;;;;;;;;5072776;28;20537;-70
2021/06/30 02:41:16;;;;;;;13.60;10.70;;;;;;;;;;5065980;28;20461;-70
2021/06/30 02:43:43;;;;;;;18.50;11.03;;;;;;;;;;5070721;28;20865;-70
2021/06/30 02:46:11;;;;;;;12.87;10.00;;;;;;;;;;5072489;28;20484;-69
2021/06/30 02:48:38;;;;;;;15.20;10.30;;;;;;;;;;5072395;28;20461;-71
2021/06/30 02:51:06;;;;;;;14.80;10.30;;;;;;;;;;5072373;28;20437;-70
2021/06/30 02:53:34;;;;;;;15.37;9.87;;;;;;;;;;5071380;28;20462;-71
2021/06/30 02:56:02;;;;;;;14.50;9.90;;;;;;;;;;5073266;28;20496;-71
2021/06/30 02:58:29;;;;;;;14.07;9.83;;;;;;;;;;5072072;28;20461;-70
2021/06/30 03:00:56;;;;;;;21.07;8.83;;;;;;;;;;5073206;28;21033;-70
2021/06/30 03:03:23;;;;;;;14.90;10.17;;;;;;;;;;5073404;28;20459;-71
2021/06/30 03:05:50;;;;;;;14.17;9.13;;;;;;;;;;5073851;28;20441;-71
2021/06/30 03:08:19;;;;;;;12.17;8.67;;;;;;;;;;5073234;28;20479;-70
2021/06/30 03:10:46;;;;;;;13.87;9.63;;;;;;;;;;5074192;28;20437;-70
2021/06/30 03:13:13;;;;;;;11.87;8.50;;;;;;;;;;5072418;28;20482;-69
2021/06/30 03:15:41;;;;;;;12.87;9.13;;;;;;;;;;5073342;28;20428;-69
2021/06/30 03:18:08;;;;;;;13.17;9.70;;;;;;;;;;5073446;28;20540;-69
2021/06/30 03:20:35;;;;;;;13.37;9.50;;;;;;;;;;5073318;28;20500;-69
2021/06/30 03:23:02;;;;;;;14.00;9.43;;;;;;;;;;5073378;28;20438;-70
2021/06/30 03:25:31;;;;;;;13.10;8.67;;;;;;;;;;5076224;28;20451;-69
2021/06/30 03:27:58;;;;;;;12.87;9.73;;;;;;;;;;5077519;28;20447;-69
2021/06/30 03:30:25;;;;;;;14.43;8.90;;;;;;;;;;5077368;28;20489;-70
2021/06/30 03:32:53;;;;;;;13.10;9.27;;;;;;;;;;5077167;28;20452;-69
2021/06/30 03:35:20;;;;;;;13.57;8.17;;;;;;;;;;5077054;28;20441;-69
2021/06/30 03:37:47;;;;;;;12.13;8.30;;;;;;;;;;5077352;28;20978;-69
2021/06/30 03:40:14;;;;;;;12.17;8.30;;;;;;;;;;5077295;28;20444;-69
2021/06/30 03:42:43;;;;;;;13.77;9.17;;;;;;;;;;5076616;28;20985;-69
2021/06/30 03:45:11;;;;;;;18.30;9.80;;;;;;;;;;5077178;28;20440;-69
2021/06/30 03:47:38;;;;;;;12.93;9.40;;;;;;;;;;5076012;28;20497;-69
2021/06/30 03:50:06;;;;;;;13.40;8.93;;;;;;;;;;5075687;28;20491;-69
2021/06/30 03:52:33;;;;;;;12.80;9.20;;;;;;;;;;5075769;28;20455;-69
2021/06/30 03:55:00;;;;;;;11.17;8.60;;;;;;;;;;5074382;28;20457;-69
2021/06/30 03:57:27;;;;;;;10.67;8.30;;;;;;;;;;5075495;28;20539;-69
2021/06/30 03:59:56;;;;;;;11.50;9.27;;;;;;;;;;5075857;28;20444;-69
2021/06/30 04:02:23;;;;;;;13.10;8.20;;;;;;;;;;5075081;28;20490;-69
2021/06/30 04:04:50;;;;;;;9.70;8.30;;;;;;;;;;5075934;28;20447;-68
2021/06/30 04:07:17;;;;;;;10.30;8.10;;;;;;;;;;5075759;28;20440;-69
2021/06/30 04:09:45;;;;;;;13.03;8.07;;;;;;;;;;5075124;28;20473;-68
2021/06/30 04:12:12;;;;;;;9.93;8.30;;;;;;;;;;5074952;28;20452;-70
2021/06/30 04:14:39;;;;;;;10.13;8.40;;;;;;;;;;5075923;28;20442;-69
2021/06/30 04:17:08;;;;;;;12.90;9.00;;;;;;;;;;5075027;28;20883;-69
2021/06/30 04:19:35;;;;;;;9.77;8.00;;;;;;;;;;5074957;28;20447;-68
2021/06/30 04:22:02;;;;;;;10.00;8.60;;;;;;;;;;5074928;28;20467;-68
2021/06/30 04:24:29;;;;;;;12.17;8.43;;;;;;;;;;5073096;28;20958;-68
2021/06/30 04:26:56;;;;;;;12.40;9.37;;;;;;;;;;5063158;28;20520;-68
2021/06/30 04:29:24;;;;;;;10.20;8.27;;;;;;;;;;5072782;28;20472;-68
2021/06/30 04:31:51;;;;;;;12.50;9.07;;;;;;;;;;5074808;28;20521;-68
2021/06/30 04:34:20;;;;;;;13.50;9.13;;;;;;;;;;5074400;28;20925;-68
2021/06/30 04:36:47;;;;;;;15.30;10.83;;;;;;;;;;5074878;28;20472;-68
2021/06/30 04:39:15;;;;;;;16.00;10.57;;;;;;;;;;5074639;28;22404;-68
2021/06/30 04:41:42;;;;;;;18.37;11.00;;;;;;;;;;5074855;28;20457;-68
2021/06/30 04:44:09;;;;;;;12.13;10.30;;;;;;;;;;5073845;28;20524;-68
2021/06/30 04:46:37;;;;;;;15.90;10.80;;;;;;;;;;5031375;28;1091002;-69
2021/06/30 04:49:04;;;;;;;13.97;10.07;;;;;;;;;;5075346;28;20216;-68
2021/06/30 04:51:32;;;;;;;15.80;9.83;;;;;;;;;;5075737;28;20776;-68
2021/06/30 04:54:00;;;;;;;11.10;10.00;;;;;;;;;;5075332;28;20488;-68
2021/06/30 04:56:39;;;;;;;13.33;9.93;;;;;;;;;;5075425;28;20457;-68
2021/06/30 04:59:06;;;;;;;11.37;10.17;;;;;;;;;;5075537;28;20454;-68
2021/06/30 05:01:34;;;;;;;11.10;9.10;;;;;;;;;;5075376;28;21012;-68
2021/06/30 05:04:01;;;;;;;10.40;8.63;;;;;;;;;;5075508;28;20531;-68
2021/06/30 05:06:28;;;;;;;10.50;9.33;;;;;;;;;;5075143;28;20445;-69
2021/06/30 05:08:57;;;;;;;10.60;9.37;;;;;;;;;;5075233;28;20508;-68
2021/06/30 05:11:24;;;;;;;12.37;9.10;;;;;;;;;;5075054;28;20464;-68
2021/06/30 05:13:51;;;;;;;14.25;9.98;;;;;;;;;;5075032;28;20858;-69
2021/06/30 05:16:18;;;;;;;13.33;10.23;;;;;;;;;;5075402;28;20223;-68
2021/06/30 05:18:45;;;;;;;13.90;10.60;;;;;;;;;;5074657;28;20536;-69
2021/06/30 05:21:13;;;;;;;12.07;9.60;;;;;;;;;;5074973;28;20930;-69
2021/06/30 05:23:40;;;;;;;13.00;9.47;;;;;;;;;;5075258;28;20523;-68
2021/06/30 05:26:09;;;;;;;12.30;9.27;;;;;;;;;;5073697;28;20538;-69
2021/06/30 05:28:36;;;;;;;13.80;9.87;;;;;;;;;;5074670;28;20966;-68
2021/06/30 05:31:03;;;;;;;16.40;10.50;;;;;;;;;;5074880;28;20545;-68
2021/06/30 05:33:31;;;;;;;15.63;10.43;;;;;;;;;;5074075;28;20615;-68
2021/06/30 05:35:59;;;;;;;14.23;9.97;;;;;;;;;;5074693;28;20495;-68
2021/06/30 05:38:26;;;;;;;11.90;9.37;;;;;;;;;;5073615;28;20463;-68
2021/06/30 05:40:54;;;;;;;12.43;9.27;;;;;;;;;;5074845;28;20451;-68
2021/06/30 05:43:22;;;;;;;11.90;9.03;;;;;;;;;;5074128;28;20895;-68
2021/06/30 05:45:49;;;;;;;11.07;8.80;;;;;;;;;;5074807;28;20537;-68
2021/06/30 05:48:17;;;;;;;12.60;10.13;;;;;;;;;;5074379;28;20465;-68
2021/06/30 05:50:44;;;;;;;10.37;9.13;;;;;;;;;;5074724;28;20564;-68
2021/06/30 05:53:11;;;;;;;13.00;9.43;;;;;;;;;;5073592;28;20456;-68
2021/06/30 05:55:38;;;;;;;13.23;8.83;;;;;;;;;;5074350;28;20437;-68
2021/06/30 05:58:06;;;;;;;16.33;9.50;;;;;;;;;;5074325;28;20901;-68
2021/06/30 06:00:34;;;;;;;9.17;7.77;;;;;;;;;;5074979;28;20449;-68
2021/06/30 06:03:02;;;;;;;13.00;8.70;;;;;;;;;;5074334;28;20437;-68
2021/06/30 06:05:29;;;;;;;10.20;8.50;;;;;;;;;;5073810;28;20440;-69
2021/06/30 06:07:56;;;;;;;9.23;7.77;;;;;;;;;;5074983;28;20440;-69
2021/06/30 06:10:24;;;;;;;8.70;7.80;;;;;;;;;;5074251;28;20579;-68
2021/06/30 06:12:51;;;;;;;9.23;7.40;;;;;;;;;;5073181;28;20458;-68
2021/06/30 06:15:18;;;;;;;9.83;8.53;;;;;;;;;;5073708;28;20537;-68
2021/06/30 06:17:47;;;;;;;9.50;7.20;;;;;;;;;;5072536;28;20523;-68
2021/06/30 06:20:14;;;;;;;12.33;7.70;;;;;;;;;;5073836;28;20844;-68
2021/06/30 06:22:42;;;;;;;8.50;7.70;;;;;;;;;;5073184;28;20463;-68
2021/06/30 06:25:09;;;;;;;8.97;7.70;;;;;;;;;;5073752;28;20520;-69
2021/06/30 06:27:38;;;;;;;9.30;8.37;;;;;;;;;;5073686;28;20514;-68
2021/06/30 06:30:06;;;;;;;14.30;9.73;;;;;;;;;;5073439;28;20513;-69
2021/06/30 06:32:33;;;;;;;11.30;8.07;;;;;;;;;;5071829;28;20865;-69
2021/06/30 06:35:02;;;;;;;10.70;8.50;;;;;;;;;;5072285;28;20993;-69
2021/06/30 06:37:30;;;;;;;12.03;8.90;;;;;;;;;;5073270;28;20547;-69
2021/06/30 06:39:57;;;;;;;9.73;8.13;;;;;;;;;;5073202;28;20460;-69
2021/06/30 06:42:24;;;;;;;12.40;9.07;;;;;;;;;;5073805;28;20538;-68
2021/06/30 06:44:52;;;;;;;11.20;9.57;;;;;;;;;;5073575;28;20540;-69
2021/06/30 06:47:19;;;;;;;13.33;9.30;;;;;;;;;;5073731;28;20476;-68
2021/06/30 06:49:46;;;;;;;11.43;9.80;;;;;;;;;;5072748;28;20485;-68
2021/06/30 06:52:15;;;;;;;13.23;10.70;;;;;;;;;;5073820;28;20934;-68
2021/06/30 06:54:42;;;;;;;11.63;10.53;;;;;;;;;;5073249;28;20439;-68
2021/06/30 06:57:09;;;;;;;13.80;11.00;;;;;;;;;;5073399;28;20548;-68
2021/06/30 06:59:36;;;;;;;14.03;9.73;;;;;;;;;;5073302;28;20442;-69
2021/06/30 07:02:04;;;;;;;13.80;12.40;;;;;;;;;;5074155;28;20440;-69
2021/06/30 07:04:31;;;;;;;14.70;13.27;;;;;;;;;;5073668;28;20444;-68
2021/06/30 07:06:58;;;;;;;16.73;13.50;;;;;;;;;;5073358;28;20436;-70
2021/06/30 07:09:27;;;;;;;16.40;14.70;;;;;;;;;;5073179;28;20440;-70
2021/06/30 07:11:54;;;;;;;18.57;15.07;;;;;;;;;;5074079;28;20524;-70
2021/06/30 07:14:21;;;;;;;18.17;15.77;;;;;;;;;;5074269;28;20578;-70
2021/06/30 07:16:48;;;;;;;21.77;16.87;;;;;;;;;;5073113;28;20466;-69
2021/06/30 07:19:16;;;;;;;18.47;16.13;;;;;;;;;;5073235;28;20445;-69
2021/06/30 07:21:43;;;;;;;19.30;16.10;;;;;;;;;;5073389;28;20441;-70
2021/06/30 07:24:10;;;;;;;20.90;18.10;;;;;;;;;;5073447;28;20535;-70
2021/06/30 07:26:39;;;;;;;19.30;17.17;;;;;;;;;;5072190;28;20489;-69
2021/06/30 07:29:09;;;;;;;17.70;15.80;;;;;;;;;;5071416;28;20476;-68
2021/06/30 07:31:36;;;;;;;20.17;17.97;;;;;;;;;;5064791;28;20648;-68
2021/06/30 07:34:04;;;;;;;19.10;17.10;;;;;;;;;;5072957;28;20466;-68
2021/06/30 07:36:31;;;;;;;19.43;17.37;;;;;;;;;;5072132;28;20516;-68
2021/06/30 07:38:59;;;;;;;19.00;16.50;;;;;;;;;;5072640;28;20499;-68
2021/06/30 07:41:26;;;;;;;17.77;15.10;;;;;;;;;;5072185;28;20458;-68
2021/06/30 07:43:55;;;;;;;16.97;15.20;;;;;;;;;;5072739;28;20449;-68
2021/06/30 07:46:22;;;;;;;16.13;14.50;;;;;;;;;;5073453;28;20573;-69
2021/06/30 07:48:50;;;;;;;14.53;12.80;;;;;;;;;;5073283;28;20532;-69
2021/06/30 07:51:17;;;;;;;15.33;13.50;;;;;;;;;;5072298;28;20480;-69
2021/06/30 07:53:44;;;;;;;14.10;12.70;;;;;;;;;;5073091;28;20443;-69
2021/06/30 07:56:12;;;;;;;14.10;12.00;;;;;;;;;;5073304;28;20473;-68
2021/06/30 07:58:40;;;;;;;12.40;11.10;;;;;;;;;;5072700;28;20432;-69
2021/06/30 08:01:08;;;;;;;13.27;11.97;;;;;;;;;;5072550;28;20462;-68
2021/06/30 08:03:36;;;;;;;14.63;13.23;;;;;;;;;;5072152;28;20545;-70
2021/06/30 08:06:03;;;;;;;12.50;11.40;;;;;;;;;;5072538;28;20451;-69
2021/06/30 08:08:30;;;;;;;14.47;12.67;;;;;;;;;;5072675;28;20926;-69
2021/06/30 08:10:57;;;;;;;13.07;11.60;;;;;;;;;;5074887;28;20566;-69
2021/06/30 08:13:24;;;;;;;14.27;12.30;;;;;;;;;;5056493;28;20819;-69
2021/06/30 08:15:52;;;;;;;14.80;13.30;;;;;;;;;;5056416;28;20448;-69
2021/06/30 08:18:20;;;;;;;15.20;13.27;;;;;;;;;;5065888;28;20461;-69
2021/06/30 08:20:51;;;;;;;14.90;13.40;;;;;;;;;;5076496;28;20473;-70
2021/06/30 08:23:19;;;;;;;15.80;14.30;;;;;;;;;;5076313;28;20429;-69
2021/06/30 08:25:46;;;;;;;15.20;13.70;;;;;;;;;;5076063;28;20452;-69
2021/06/30 08:28:17;;;;;;;14.90;13.50;;;;;;;;;;5076050;28;20548;-69
2021/06/30 08:30:44;;;;;;;15.43;13.80;;;;;;;;;;5075519;28;20468;-70
2021/06/30 08:33:11;;;;;;;16.73;14.80;;;;;;;;;;5075801;28;20437;-70
2021/06/30 08:35:40;;;;;;;15.87;14.03;;;;;;;;;;5075813;28;20463;-69
2021/06/30 08:38:07;;;;;;;15.63;14.13;;;;;;;;;;5074831;28;20464;-69
2021/06/30 08:40:36;;;;;;;13.70;12.30;;;;;;;;;;5075557;28;20525;-70
2021/06/30 08:43:03;;;;;;;15.33;13.83;;;;;;;;;;5075585;28;20845;-70
2021/06/30 08:45:30;;;;;;;15.77;14.30;;;;;;;;;;5076414;28;20441;-69
2021/06/30 08:47:58;;;;;;;15.73;14.33;;;;;;;;;;5075528;28;21044;-69
2021/06/30 08:50:26;;;;;;;14.23;12.73;;;;;;;;;;5075189;28;20939;-69
2021/06/30 08:52:55;;;;;;;15.30;13.80;;;;;;;;;;5075915;28;20471;-69
2021/06/30 08:55:23;;;;;;;15.13;13.83;;;;;;;;;;5074684;28;20545;-69
2021/06/30 08:57:51;;;;;;;14.07;12.73;;;;;;;;;;5076175;28;20478;-69
2021/06/30 09:00:19;;;;;;;15.73;14.23;;;;;;;;;;5075453;28;20792;-69
2021/06/30 09:02:49;;;;;;;16.00;14.10;;;;;;;;;;5075285;28;20457;-69
2021/06/30 09:05:48;;;;;;;16.90;15.30;;;;;;;;;;5076277;28;20839;-70
2021/06/30 09:08:17;;;;;;;17.93;16.07;;;;;;;;;;5074369;28;20449;-70
2021/06/30 09:10:44;;;;;;;13.00;11.23;;;;;;;;;;5075030;28;20469;-69
2021/06/30 09:13:20;;;;;;;16.13;14.53;;;;;;;;;;5065947;28;20442;-70
2021/06/30 09:15:47;;;;;;;16.87;14.80;;;;;;;;;;5075292;28;20925;-69
2021/06/30 09:18:22;;;;;;;16.20;14.60;;;;;;;;;;5074995;28;20942;-69
2021/06/30 09:20:50;;;;;;;19.30;17.40;;;;;;;;;;5075070;28;20448;-69
2021/06/30 09:23:19;;;;;;;19.17;17.30;;;;;;;;;;5074141;28;20449;-70
2021/06/30 09:25:46;;;;;;;18.47;16.67;;;;;;;;;;5075421;28;20524;-70
2021/06/30 09:28:17;;;;;;;23.50;17.60;;;;;;;;;;5074946;28;20443;-72
2021/06/30 09:30:58;;;;;;;22.17;16.57;;;;;;;;;;5074835;28;20469;-71
2021/06/30 09:33:25;;;;;;;17.40;14.53;;;;;;;;;;5075848;28;20795;-70
2021/06/30 09:36:03;;;;;;;17.20;15.50;;;;;;;;;;5075737;28;20437;-70
2021/06/30 09:38:33;;;;;;;14.87;13.57;;;;;;;;;;5074607;28;20468;-71
2021/06/30 09:41:01;;;;;;;15.43;13.20;;;;;;;;;;5074901;28;20472;-70
2021/06/30 09:43:29;;;;;;;13.47;12.00;;;;;;;;;;5075057;28;20465;-70
2021/06/30 09:45:57;;;;;;;13.83;12.53;;;;;;;;;;5074668;28;20572;-70
2021/06/30 09:48:29;;;;;;;14.27;12.70;;;;;;;;;;5073671;28;20453;-70
2021/06/30 09:50:56;;;;;;;15.67;14.17;;;;;;;;;;5074562;28;20473;-70
2021/06/30 09:53:40;;;;;;;15.63;13.97;;;;;;;;;;5074152;28;20458;-70
2021/06/30 09:56:11;;;;;;;15.20;13.57;;;;;;;;;;5074399;28;20440;-70
2021/06/30 09:58:39;;;;;;;13.80;12.50;;;;;;;;;;5074229;28;20502;-70
2021/06/30 10:01:19;;;;;;;13.67;12.37;;;;;;;;;;5074286;28;20440;-69
2021/06/30 10:03:47;;;;;;;14.03;12.63;;;;;;;;;;5072926;28;21010;-73
2021/06/30 10:06:24;;;;;;;14.13;12.73;;;;;;;;;;5074425;28;20531;-72
2021/06/30 10:08:53;;;;;;;14.67;13.20;;;;;;;;;;5070083;28;20979;-73
2021/06/30 10:11:20;;;;;;;14.70;13.20;;;;;;;;;;5054245;28;20526;-73
2021/06/30 10:13:48;;;;;;;15.20;13.67;;;;;;;;;;5054204;28;20527;-74
2021/06/30 10:16:17;;;;;;;15.00;13.40;;;;;;;;;;5053774;28;20449;-75
2021/06/30 10:18:45;;;;;;;16.37;14.60;;;;;;;;;;5072837;28;20441;-75
2021/06/30 10:21:12;;;;;;;17.90;13.83;;;;;;;;;;5074097;28;20425;-77
2021/06/30 10:23:40;;;;;;;15.90;14.30;;;;;;;;;;5073868;28;20535;-72
2021/06/30 10:26:09;;;;;;;14.87;13.37;;;;;;;;;;5074063;28;20439;-73
2021/06/30 10:28:37;;;;;;;14.30;12.90;;;;;;;;;;5073937;28;20541;-77
2021/06/30 10:31:04;;;;;;;13.83;12.37;;;;;;;;;;5074566;28;20496;-76
2021/06/30 10:33:33;;;;;;;13.80;11.03;;;;;;;;;;5073672;28;20540;-70
2021/06/30 10:36:01;;;;;;;12.80;11.50;;;;;;;;;;5073474;28;20445;-73
2021/06/30 10:38:43;;;;;;;15.00;12.07;;;;;;;;;;5070706;28;20535;-71
2021/06/30 10:41:25;;;;;;;12.00;10.80;;;;;;;;;;5053692;28;20959;-72
2021/06/30 10:44:07;;;;;;;10.83;9.40;;;;;;;;;;5066129;28;20441;-71
2021/06/30 10:46:35;;;;;;;12.20;9.20;;;;;;;;;;5073199;28;20482;-71
2021/06/30 10:49:21;;;;;;;11.43;9.17;;;;;;;;;;5073598;28;20495;-72
2021/06/30 10:51:50;;;;;;;9.97;9.03;;;;;;;;;;5073573;28;20995;-70
2021/06/30 10:54:40;;;;;;;9.40;8.40;;;;;;;;;;5073618;28;20469;-71
2021/06/30 10:57:21;;;;;;;9.63;8.73;;;;;;;;;;5073725;28;20834;-71
2021/06/30 11:00:08;;;;;;;8.37;7.57;;;;;;;;;;5073125;28;20477;-72
2021/06/30 11:02:37;;;;;;;7.80;6.97;;;;;;;;;;5073227;28;20450;-72
2021/06/30 11:05:23;;;;;;;8.37;7.53;;;;;;;;;;5073228;28;20880;-73
2021/06/30 11:07:50;;;;;;;7.67;6.97;;;;;;;;;;5063491;28;20955;-73
2021/06/30 11:10:32;;;;;;;8.07;7.37;;;;;;;;;;5069334;28;20543;-74
2021/06/30 11:13:00;;;;;;;7.70;6.90;;;;;;;;;;5072315;28;20523;-75
2021/06/30 11:15:40;;;;;;;7.10;6.40;;;;;;;;;;5073310;28;20441;-74
2021/06/30 11:18:28;;;;;;;6.30;5.80;;;;;;;;;;5053249;28;20923;-74
2021/06/30 11:21:00;;;;;;;5.70;5.20;;;;;;;;;;5052938;28;20546;-74
2021/06/30 11:23:29;;;;;;;9.37;5.17;;;;;;;;;;5069443;28;20542;-74
2021/06/30 11:25:57;;;;;;;4.87;4.43;;;;;;;;;;5073125;28;20449;-75
2021/06/30 11:28:30;;;;;;;5.57;5.13;;;;;;;;;;5072454;28;20462;-75
2021/06/30 11:30:58;;;;;;;5.40;5.00;;;;;;;;;;5073272;28;20488;-75
2021/06/30 11:33:26;;;;;;;6.40;5.60;;;;;;;;;;5072667;28;20448;-74
2021/06/30 11:36:02;;;;;;;5.10;4.70;;;;;;;;;;5073072;28;20437;-76
2021/06/30 11:38:32;;;;;;;5.20;4.83;;;;;;;;;;5067295;28;20454;-77
2021/06/30 11:41:06;;;;;;;5.33;4.93;;;;;;;;;;5073634;28;20829;-76
2021/06/30 11:43:39;;;;;;;6.10;5.60;;;;;;;;;;5073268;28;20453;-76
2021/06/30 11:46:07;;;;;;;6.47;5.00;;;;;;;;;;5075860;28;20476;-75
2021/06/30 11:48:37;;;;;;;6.07;5.43;;;;;;;;;;5076905;28;20429;-76
2021/06/30 11:51:10;;;;;;;6.60;5.63;;;;;;;;;;5076637;28;20866;-76
2021/06/30 11:53:45;;;;;;;5.80;5.40;;;;;;;;;;5076536;28;20926;-76
2021/06/30 11:56:13;;;;;;;5.47;5.07;;;;;;;;;;5076623;28;20456;-76
2021/06/30 11:58:49;;;;;;;7.13;5.40;;;;;;;;;;5076542;28;20438;-74
2021/06/30 12:01:24;;;;;;;5.03;4.73;;;;;;;;;;5076451;28;20513;-74
2021/06/30 12:04:07;;;;;;;5.17;4.77;;;;;;;;;;5077240;28;20481;-74
2021/06/30 12:06:34;;;;;;;4.63;4.33;;;;;;;;;;5076131;28;20454;-75
2021/06/30 12:09:06;;;;;;;4.80;4.47;;;;;;;;;;5076435;28;20465;-76
2021/06/30 12:11:33;;;;;;;4.70;4.30;;;;;;;;;;5075757;28;20560;-73
2021/06/30 12:14:04;;;;;;;5.67;5.27;;;;;;;;;;5076010;28;20446;-73
2021/06/30 12:16:45;;;;;;;5.53;5.13;;;;;;;;;;5076373;28;20943;-74
2021/06/30 12:19:14;;;;;;;5.80;5.40;;;;;;;;;;5075348;28;20493;-74
2021/06/30 12:21:42;;;;;;;5.27;4.87;;;;;;;;;;5076660;28;20461;-74
2021/06/30 12:24:17;;;;;;;5.53;5.13;;;;;;;;;;5076559;28;20443;-72
2021/06/30 12:26:58;;;;;;;4.20;3.90;;;;;;;;;;5076205;28;20459;-71
2021/06/30 12:29:25;;;;;;;3.57;3.37;;;;;;;;;;5075900;28;20979;-73
2021/06/30 12:31:52;;;;;;;4.50;4.20;;;;;;;;;;5075587;28;20532;-74
2021/06/30 12:34:21;;;;;;;4.40;4.00;;;;;;;;;;5076080;28;20460;-71
2021/06/30 12:36:49;;;;;;;4.27;3.97;;;;;;;;;;5076115;28;20471;-71
2021/06/30 12:39:22;;;;;;;4.27;3.97;;;;;;;;;;5076190;28;20927;-71
2021/06/30 12:41:50;;;;;;;4.47;4.17;;;;;;;;;;5074791;28;20463;-71
2021/06/30 12:44:18;;;;;;;4.47;4.13;;;;;;;;;;5075548;28;20954;-71
2021/06/30 12:46:45;;;;;;;4.20;3.90;;;;;;;;;;5075837;28;20477;-71
2021/06/30 12:49:18;;;;;;;4.27;3.87;;;;;;;;;;5075496;28;20527;-72
2021/06/30 12:51:47;;;;;;;4.53;4.23;;;;;;;;;;5075487;28;20562;-71
2021/06/30 12:54:14;;;;;;;5.57;4.17;;;;;;;;;;5074796;28;20539;-71
2021/06/30 12:56:46;;;;;;;3.83;3.53;;;;;;;;;;5075703;28;20999;-71
2021/06/30 12:59:14;;;;;;;5.13;4.77;;;;;;;;;;5075099;28;20541;-71
2021/06/30 13:01:42;;;;;;;4.30;4.00;;;;;;;;;;5075826;28;20794;-72
2021/06/30 13:04:10;;;;;;;3.77;3.57;;;;;;;;;;5075074;28;20493;-72
2021/06/30 13:06:38;;;;;;;4.87;4.40;;;;;;;;;;5075411;28;20447;-72
2021/06/30 13:09:07;;;;;;;3.70;3.50;;;;;;;;;;5075519;28;20453;-71
2021/06/30 13:11:41;;;;;;;3.60;3.40;;;;;;;;;;5074608;28;20482;-72
2021/06/30 13:14:11;;;;;;;3.63;3.37;;;;;;;;;;5068585;28;20456;-71
2021/06/30 13:16:51;;;;;;;3.93;3.63;;;;;;;;;;5075696;28;20455;-72
2021/06/30 13:19:21;;;;;;;3.50;3.30;;;;;;;;;;5067055;28;20481;-72
2021/06/30 13:21:49;;;;;;;5.20;4.90;;;;;;;;;;5075421;28;20447;-71
2021/06/30 13:24:21;;;;;;;6.07;4.13;;;;;;;;;;5074687;28;20966;-71
2021/06/30 13:35:38;;;;;;;5.70;5.10;;;;;;;;;;5074928;28;20902;-72
2021/06/30 13:38:06;;;;;;;8.97;4.90;;;;;;;;;;5074273;28;20483;-72
2021/06/30 13:40:35;;;;;;;5.20;4.80;;;;;;;;;;5074664;28;20450;-72
2021/06/30 13:43:04;;;;;;;5.13;4.73;;;;;;;;;;5074364;28;20493;-72
2021/06/30 13:45:36;;;;;;;5.87;4.70;;;;;;;;;;5074298;28;20469;-73
2021/06/30 13:48:03;;;;;;;6.13;5.10;;;;;;;;;;5073302;28;20985;-72
2021/06/30 13:50:31;;;;;;;5.47;5.07;;;;;;;;;;5074441;28;20466;-73
2021/06/30 13:52:58;;;;;;;5.23;4.73;;;;;;;;;;5073338;28;20484;-73
2021/06/30 13:55:25;;;;;;;5.80;5.03;;;;;;;;;;5074119;28;20512;-72
2021/06/30 13:57:55;;;;;;;5.07;4.60;;;;;;;;;;5074453;28;20457;-73
2021/06/30 14:00:22;;;;;;;5.40;5.00;;;;;;;;;;5074296;28;20464;-73
2021/06/30 14:02:50;;;;;;;4.80;4.50;;;;;;;;;;5074442;28;20448;-72
2021/06/30 14:05:17;;;;;;;4.93;4.53;;;;;;;;;;5073864;28;20463;-72
2021/06/30 14:07:45;;;;;;;4.93;4.43;;;;;;;;;;5073425;28;20444;-72
2021/06/30 14:10:12;;;;;;;5.17;4.77;;;;;;;;;;5073771;28;20555;-72
2021/06/30 14:12:39;;;;;;;5.63;5.23;;;;;;;;;;5074298;28;20480;-72
2021/06/30 14:15:08;;;;;;;4.50;4.10;;;;;;;;;;5073876;28;20442;-72
2021/06/30 14:17:36;;;;;;;5.30;4.90;;;;;;;;;;5074214;28;20459;-73
2021/06/30 14:20:04;;;;;;;6.27;5.67;;;;;;;;;;5073769;28;20444;-73
2021/06/30 14:22:34;;;;;;;6.13;5.60;;;;;;;;;;5073776;28;20844;-74
2021/06/30 14:25:01;;;;;;;5.77;5.27;;;;;;;;;;5074098;28;20479;-72
2021/06/30 14:27:29;;;;;;;5.80;5.30;;;;;;;;;;5073957;28;20525;-71
2021/06/30 14:29:57;;;;;;;6.07;5.57;;;;;;;;;;5073659;28;20977;-71
2021/06/30 14:32:26;;;;;;;6.40;5.80;;;;;;;;;;5074212;28;20574;-71
2021/06/30 14:34:54;;;;;;;6.67;6.07;;;;;;;;;;5073835;28;20450;-72
2021/06/30 14:37:21;;;;;;;6.17;5.67;;;;;;;;;;5073529;28;20445;-71
2021/06/30 14:39:50;;;;;;;6.57;5.87;;;;;;;;;;5073620;28;20486;-71
2021/06/30 14:42:18;;;;;;;7.40;6.70;;;;;;;;;;5073584;28;20464;-71
2021/06/30 14:44:46;;;;;;;6.77;6.27;;;;;;;;;;5073334;28;20456;-72
2021/06/30 14:47:13;;;;;;;5.80;5.20;;;;;;;;;;5073819;28;20485;-72